Time;durP1;ratioP1;P1;durP2;ratioP2;P2;SDS_P1;SDS_P2;PMS_P1;PMS_P2;Temp;Humidity;BMP_temperature;BMP_pressure;BME280_temperature;BME280_humidity;BME280_pressure;Samples;Min_cycle;Max_cycle;Signal;HPM_P1;HPM_P2
2021/08/11 00:00:16;;;;;;;8.15;4.93;;;;;;;16.15;82.49;101571.59;4998833;28;20034;-75
2021/08/11 00:02:42;;;;;;;7.35;4.45;;;;;;;16.13;82.65;101568.34;4983550;28;20358;-75
2021/08/11 00:05:08;;;;;;;8.70;4.68;;;;;;;16.13;82.35;101570.16;4995247;28;20298;-75
2021/08/11 00:07:34;;;;;;;6.57;4.47;;;;;;;16.11;82.29;101577.38;4994671;28;20353;-76
2021/08/11 00:09:59;;;;;;;12.30;5.50;;;;;;;16.09;82.30;101576.72;4999086;28;20404;-75
2021/08/11 00:12:25;;;;;;;6.35;4.57;;;;;;;16.08;82.18;101577.72;5003853;28;20044;-75
2021/08/11 00:14:50;;;;;;;7.00;4.32;;;;;;;16.04;82.15;101576.44;5003687;28;20042;-75
2021/08/11 00:17:16;;;;;;;7.90;4.82;;;;;;;15.99;82.03;101565.66;4995176;28;20423;-75
2021/08/11 00:19:41;;;;;;;5.68;3.75;;;;;;;15.93;81.88;101565.34;4985499;28;20372;-75
2021/08/11 00:22:07;;;;;;;5.93;4.18;;;;;;;15.89;81.79;101564.09;4973136;28;20045;-75
2021/08/11 00:24:32;;;;;;;5.53;3.97;;;;;;;15.83;82.01;101566.59;4994818;28;20026;-75
2021/08/11 00:26:58;;;;;;;6.03;4.32;;;;;;;15.83;81.73;101571.81;4993018;28;20033;-75
2021/08/11 00:29:24;;;;;;;8.45;4.72;;;;;;;15.78;81.55;101564.47;4994493;28;20060;-75
2021/08/11 00:31:50;;;;;;;7.25;4.63;;;;;;;15.74;81.50;101569.22;4978160;28;20036;-76
2021/08/11 00:34:15;;;;;;;7.10;4.50;;;;;;;15.70;81.79;101562.69;4969391;28;20030;-75
2021/08/11 00:36:41;;;;;;;10.18;4.63;;;;;;;15.68;81.90;101574.31;4986407;28;20034;-75
2021/08/11 00:39:07;;;;;;;6.68;4.80;;;;;;;15.67;81.91;101573.50;4978596;28;20782;-76
2021/08/11 00:41:33;;;;;;;11.43;5.10;;;;;;;15.66;81.80;101571.06;4991149;28;20028;-76
2021/08/11 00:43:59;;;;;;;6.80;4.57;;;;;;;15.64;81.68;101573.84;4990306;28;20472;-76
2021/08/11 00:46:25;;;;;;;9.80;4.82;;;;;;;15.64;81.87;101573.03;4986323;28;20435;-76
2021/08/11 00:48:51;;;;;;;9.45;4.47;;;;;;;15.60;81.87;101572.56;4989818;28;20026;-75
2021/08/11 00:51:19;;;;;;;10.05;4.78;;;;;;;15.56;82.12;101569.47;4989414;28;20026;-76
2021/08/11 00:53:48;;;;;;;6.55;4.88;;;;;;;15.51;82.07;101570.94;4988161;28;20381;-75
2021/08/11 00:56:19;;;;;;;5.93;4.18;;;;;;;15.42;81.87;101578.00;4993717;28;20613;-75
2021/08/11 00:58:45;;;;;;;6.25;4.25;;;;;;;15.34;81.85;101581.44;5001377;28;20532;-76
2021/08/11 01:01:11;;;;;;;7.35;4.32;;;;;;;15.26;81.92;101585.91;4988618;28;20034;-75
2021/08/11 01:03:37;;;;;;;4.80;3.78;;;;;;;15.20;81.96;101582.16;4973544;28;20706;-75
2021/08/11 01:06:06;;;;;;;6.45;3.30;;;;;;;15.12;82.09;101580.38;5001480;28;20042;-75
2021/08/11 01:08:36;;;;;;;4.43;3.05;;;;;;;15.07;82.24;101576.63;5002092;28;20041;-75
2021/08/11 01:11:04;;;;;;;3.67;2.85;;;;;;;15.03;82.41;101578.78;4986321;28;20101;-75
2021/08/11 01:13:31;;;;;;;3.72;2.60;;;;;;;15.05;82.43;101576.81;4995063;28;20044;-75
2021/08/11 01:15:58;;;;;;;6.38;3.03;;;;;;;15.05;82.07;101574.19;4994299;28;20681;-75
2021/08/11 01:18:27;;;;;;;4.70;3.13;;;;;;;15.04;82.02;101577.78;4992939;28;20063;-75
2021/08/11 01:20:59;;;;;;;4.68;2.85;;;;;;;15.04;81.91;101579.59;4999105;28;20480;-75
2021/08/11 01:23:31;;;;;;;6.35;2.97;;;;;;;15.03;82.02;101585.78;5005916;28;20045;-75
2021/08/11 01:26:10;;;;;;;4.10;2.47;;;;;;;15.05;82.05;101570.75;4984312;28;20488;-75
2021/08/11 01:28:44;;;;;;;4.05;2.95;;;;;;;15.04;81.84;101577.78;5007641;28;20474;-76
2021/08/11 01:31:17;;;;;;;4.22;3.13;;;;;;;15.02;81.84;101584.97;4966941;28;20026;-75
2021/08/11 01:33:48;;;;;;;6.68;3.90;;;;;;;14.92;81.95;101587.75;4983626;28;20551;-75
2021/08/11 01:36:28;;;;;;;4.53;2.85;;;;;;;14.87;82.07;101587.44;4996966;28;20447;-75
2021/08/11 01:39:03;;;;;;;7.18;3.33;;;;;;;14.83;82.43;101587.94;4994172;28;20041;-75
2021/08/11 01:41:38;;;;;;;5.75;3.63;;;;;;;14.78;82.71;101588.41;4994197;28;20045;-75
2021/08/11 01:44:07;;;;;;;3.65;2.67;;;;;;;14.75;82.77;101594.00;4987565;28;20377;-75
2021/08/11 01:46:37;;;;;;;4.75;3.00;;;;;;;14.74;82.70;101592.34;5000169;28;20153;-75
2021/08/11 01:49:07;;;;;;;4.35;3.50;;;;;;;14.71;82.87;101590.06;4987283;28;20030;-75
2021/08/11 01:51:36;;;;;;;8.63;3.38;;;;;;;14.65;82.95;101591.53;4982503;28;20451;-75
2021/08/11 01:54:03;;;;;;;7.28;2.90;;;;;;;14.62;83.21;101596.25;4983572;28;20480;-74
2021/08/11 01:56:30;;;;;;;5.00;3.08;;;;;;;14.61;83.13;101592.84;4997667;28;20327;-75
2021/08/11 01:58:57;;;;;;;10.48;3.50;;;;;;;14.61;82.96;101595.44;4988507;28;20033;-74
2021/08/11 02:01:24;;;;;;;4.05;3.30;;;;;;;14.63;83.03;101596.09;4993353;28;20030;-74
2021/08/11 02:03:50;;;;;;;9.27;3.47;;;;;;;14.60;82.95;101594.63;4973518;28;20033;-75
2021/08/11 02:06:17;;;;;;;5.65;3.63;;;;;;;14.60;83.41;101596.44;4980524;28;20475;-75
2021/08/11 02:08:50;;;;;;;5.30;3.27;;;;;;;14.56;82.83;101595.06;4966385;28;20030;-74
2021/08/11 02:11:17;;;;;;;7.35;3.45;;;;;;;14.55;82.90;101583.03;5000672;28;20018;-75
2021/08/11 02:13:43;;;;;;;11.77;4.03;;;;;;;14.54;82.72;101584.81;4987393;28;20035;-74
2021/08/11 02:16:11;;;;;;;5.38;3.58;;;;;;;14.51;82.64;101585.13;4971438;28;20034;-74
2021/08/11 02:18:38;;;;;;;15.55;4.85;;;;;;;14.52;82.61;101578.97;4983517;28;20042;-74
2021/08/11 02:21:04;;;;;;;7.95;3.70;;;;;;;14.54;82.52;101578.78;4980771;28;20037;-74
2021/08/11 02:23:29;;;;;;;9.23;3.42;;;;;;;14.53;82.40;101585.78;4991194;28;20026;-74
2021/08/11 02:26:17;;;;;;;7.68;3.13;;;;;;;14.56;82.02;101589.84;4990457;28;20041;-74
2021/08/11 02:29:07;;;;;;;9.55;3.17;;;;;;;14.54;81.91;101586.59;4994260;28;20029;-74
2021/08/11 02:31:51;;;;;;;4.85;3.35;;;;;;;14.49;82.02;101584.50;4980330;28;20440;-75
2021/08/11 02:34:31;;;;;;;8.13;3.38;;;;;;;14.45;82.29;101588.41;4959672;28;20484;-75
2021/08/11 02:37:02;;;;;;;6.68;3.45;;;;;;;14.39;82.34;101576.81;5006065;28;20467;-75
2021/08/11 02:39:39;;;;;;;3.92;2.95;;;;;;;14.33;82.77;101579.25;4997553;28;20133;-75
2021/08/11 02:42:17;;;;;;;5.97;3.50;;;;;;;14.27;82.60;101585.13;4988513;28;20491;-74
2021/08/11 02:44:53;;;;;;;9.48;4.90;;;;;;;14.19;83.12;101586.72;4989675;28;20031;-74
2021/08/11 02:47:20;;;;;;;12.30;4.38;;;;;;;14.15;83.21;101585.44;4984216;28;20483;-74
2021/08/11 02:49:46;;;;;;;6.60;4.50;;;;;;;14.13;83.38;101590.00;4986942;28;20112;-75
2021/08/11 02:52:13;;;;;;;6.28;4.88;;;;;;;14.12;83.32;101588.34;4993220;28;20101;-74
2021/08/11 02:54:41;;;;;;;11.57;5.15;;;;;;;14.09;83.40;101588.69;5011642;28;20026;-75
2021/08/11 02:57:08;;;;;;;8.43;4.40;;;;;;;14.11;83.38;101594.56;4987147;28;20030;-75
2021/08/11 02:59:36;;;;;;;6.88;3.97;;;;;;;14.13;83.23;101591.78;4993846;28;20048;-74
2021/08/11 03:02:06;;;;;;;9.75;5.18;;;;;;;14.12;83.19;101584.94;4978372;28;20042;-75
2021/08/11 03:04:32;;;;;;;6.85;4.65;;;;;;;14.07;83.04;101581.97;4992933;28;20092;-75
2021/08/11 03:06:58;;;;;;;9.10;4.60;;;;;;;13.99;83.15;101590.59;5002653;28;20418;-75
2021/08/11 03:09:24;;;;;;;5.50;3.78;;;;;;;13.92;83.21;101593.03;4997943;28;20061;-74
2021/08/11 03:11:50;;;;;;;6.00;3.53;;;;;;;13.88;83.29;101586.53;4996832;28;20074;-74
2021/08/11 03:14:16;;;;;;;4.78;3.17;;;;;;;13.88;83.24;101589.13;4974025;28;20076;-74
2021/08/11 03:16:44;;;;;;;8.07;4.55;;;;;;;13.87;82.82;101590.09;4982870;28;20361;-74
2021/08/11 03:19:10;;;;;;;4.78;3.20;;;;;;;13.88;82.94;101586.53;4998030;28;20061;-74
2021/08/11 03:21:38;;;;;;;6.38;3.60;;;;;;;13.90;82.90;101592.38;4995936;28;20026;-74
2021/08/11 03:24:06;;;;;;;5.15;3.63;;;;;;;13.91;82.72;101590.59;4980753;28;20057;-74
2021/08/11 03:26:31;;;;;;;10.73;4.18;;;;;;;13.90;82.52;101594.16;4975014;28;20072;-74
2021/08/11 03:29:00;;;;;;;7.68;3.67;;;;;;;13.87;82.77;101594.50;4973229;28;20026;-74
2021/08/11 03:31:30;;;;;;;8.68;4.10;;;;;;;13.87;82.66;101591.88;4992357;28;20519;-74
2021/08/11 03:33:57;;;;;;;6.72;4.45;;;;;;;13.86;82.51;101598.06;5011999;28;20210;-73
2021/08/11 03:36:25;;;;;;;7.68;3.83;;;;;;;13.82;82.56;101598.41;4983750;28;20038;-73
2021/08/11 03:38:50;;;;;;;8.65;4.30;;;;;;;13.79;82.69;101593.47;4994813;28;20488;-74
2021/08/11 03:41:16;;;;;;;8.48;5.70;;;;;;;13.79;82.65;101597.88;4992083;28;20057;-74
2021/08/11 03:43:43;;;;;;;6.22;4.03;;;;;;;13.73;82.88;101599.34;4984118;28;20037;-74
2021/08/11 03:46:08;;;;;;;9.07;4.63;;;;;;;13.75;82.76;101604.38;5000808;28;20049;-74
2021/08/11 03:48:34;;;;;;;9.68;4.75;;;;;;;13.71;82.76;101590.03;4989279;28;20475;-74
2021/08/11 03:51:00;;;;;;;12.07;4.97;;;;;;;13.65;83.15;101596.69;4990970;28;20186;-74
2021/08/11 03:53:26;;;;;;;8.57;5.05;;;;;;;13.58;83.21;101603.47;4987656;28;21221;-74
2021/08/11 03:55:52;;;;;;;6.85;4.38;;;;;;;13.53;83.38;101603.97;4983361;28;20041;-74
2021/08/11 03:58:18;;;;;;;6.53;3.78;;;;;;;13.54;83.24;101608.22;4979091;28;20030;-74
2021/08/11 04:00:44;;;;;;;6.82;4.28;;;;;;;13.55;83.13;101598.59;4982424;28;20462;-74
2021/08/11 04:03:10;;;;;;;7.90;4.90;;;;;;;13.54;82.91;101596.97;5003220;28;20344;-74
2021/08/11 04:05:36;;;;;;;7.82;4.07;;;;;;;13.49;83.02;101607.84;4993894;28;20495;-74
2021/08/11 04:08:01;;;;;;;6.95;3.85;;;;;;;13.48;83.01;101608.00;4995089;28;20400;-74
2021/08/11 04:10:26;;;;;;;9.43;3.78;;;;;;;13.49;82.97;101609.66;5007956;28;20492;-74
2021/08/11 04:12:52;;;;;;;8.10;4.45;;;;;;;13.49;82.71;101605.25;5002748;28;20083;-74
2021/08/11 04:15:17;;;;;;;5.80;3.70;;;;;;;13.48;82.74;101608.00;5002964;28;20038;-74
2021/08/11 04:17:43;;;;;;;7.45;3.92;;;;;;;13.44;82.83;101615.31;5012793;28;20494;-74
2021/08/11 04:20:09;;;;;;;8.95;4.25;;;;;;;13.42;83.05;101609.44;5007008;28;20042;-74
2021/08/11 04:22:34;;;;;;;6.47;3.92;;;;;;;13.41;82.97;101611.25;5002670;28;20045;-74
2021/08/11 04:25:00;;;;;;;10.75;4.60;;;;;;;13.40;82.94;101614.81;4982429;28;20018;-74
2021/08/11 04:27:25;;;;;;;7.45;4.82;;;;;;;13.40;82.99;101611.38;5002881;28;20396;-74
2021/08/11 04:29:51;;;;;;;8.20;3.97;;;;;;;13.38;83.16;101619.34;4989844;28;20454;-73
2021/08/11 04:32:16;;;;;;;10.90;4.53;;;;;;;13.37;83.37;101609.09;4995745;28;20081;-74
2021/08/11 04:34:42;;;;;;;11.25;4.68;;;;;;;13.32;83.55;101601.75;4998970;28;20034;-74
2021/08/11 04:37:07;;;;;;;6.25;4.28;;;;;;;13.29;83.65;101607.22;4998942;28;20092;-74
2021/08/11 04:39:33;;;;;;;12.10;5.80;;;;;;;13.32;83.82;101612.16;5006673;28;20508;-74
2021/08/11 04:41:59;;;;;;;11.57;5.20;;;;;;;13.30;84.16;101619.31;5005545;28;20054;-74
2021/08/11 04:44:25;;;;;;;10.85;5.68;;;;;;;13.35;84.44;101617.03;5012906;28;20046;-74
2021/08/11 04:46:50;;;;;;;11.27;5.78;;;;;;;13.39;84.78;101617.56;4996581;28;20092;-74
2021/08/11 04:49:15;;;;;;;7.82;5.20;;;;;;;13.43;84.95;101627.53;4994906;28;20479;-74
2021/08/11 04:51:41;;;;;;;10.43;6.20;;;;;;;13.48;85.18;101623.63;4982611;28;20499;-74
2021/08/11 04:54:06;;;;;;;14.73;7.20;;;;;;;13.54;85.67;101621.25;5011449;28;20403;-74
2021/08/11 04:56:32;;;;;;;11.50;6.40;;;;;;;13.55;86.00;101616.84;5005308;28;20041;-74
2021/08/11 04:58:57;;;;;;;11.45;6.95;;;;;;;13.58;86.34;101625.16;4993109;28;20291;-74
2021/08/11 05:01:23;;;;;;;13.93;6.40;;;;;;;13.65;86.55;101622.75;4997267;28;20054;-74
2021/08/11 05:03:48;;;;;;;13.55;7.40;;;;;;;13.71;86.51;101616.09;4991830;28;20037;-74
2021/08/11 05:06:14;;;;;;;13.90;6.55;;;;;;;13.78;86.61;101617.91;5007403;28;20056;-74
2021/08/11 05:08:40;;;;;;;13.65;6.32;;;;;;;13.83;86.47;101618.25;4988691;28;20308;-74
2021/08/11 05:11:06;;;;;;;16.35;8.20;;;;;;;13.96;86.15;101627.44;5007332;28;20041;-74
2021/08/11 05:13:31;;;;;;;18.48;8.48;;;;;;;13.97;86.53;101629.88;5006466;28;20476;-74
2021/08/11 05:15:57;;;;;;;18.38;7.57;;;;;;;13.98;86.46;101625.50;5000827;28;20369;-74
2021/08/11 05:18:23;;;;;;;14.50;7.57;;;;;;;14.05;86.62;101634.28;5007683;28;20393;-74
2021/08/11 05:20:48;;;;;;;13.50;6.80;;;;;;;14.11;86.60;101628.47;5006141;28;20465;-74
2021/08/11 05:23:14;;;;;;;12.32;6.82;;;;;;;14.17;86.51;101632.22;5012784;28;20025;-74
2021/08/11 05:25:41;;;;;;;14.93;7.57;;;;;;;14.23;86.56;101641.19;5019061;28;20046;-74
2021/08/11 05:28:07;;;;;;;11.48;6.47;;;;;;;14.26;86.70;101635.66;4990977;28;20030;-74
2021/08/11 05:30:32;;;;;;;11.23;6.93;;;;;;;14.35;86.74;101630.31;5006196;28;20060;-74
2021/08/11 05:32:58;;;;;;;11.25;6.85;;;;;;;14.38;86.97;101637.00;5012626;28;20034;-74
2021/08/11 05:35:23;;;;;;;15.38;8.93;;;;;;;14.45;87.08;101637.13;5003268;28;20038;-74
2021/08/11 05:37:49;;;;;;;14.05;8.98;;;;;;;14.49;87.59;101631.47;5011216;28;20371;-74
2021/08/11 05:40:16;;;;;;;17.17;9.35;;;;;;;14.68;87.58;101634.78;4985675;28;20037;-74
2021/08/11 05:42:42;;;;;;;15.77;8.75;;;;;;;14.70;88.02;101638.84;4980321;28;20038;-74
2021/08/11 05:45:08;;;;;;;13.60;7.45;;;;;;;14.65;88.31;101637.69;5000721;28;20041;-75
2021/08/11 05:47:34;;;;;;;12.20;6.88;;;;;;;14.66;88.30;101642.75;5002130;28;20048;-74
2021/08/11 05:50:00;;;;;;;13.82;8.57;;;;;;;14.72;88.36;101649.13;4997691;28;20439;-75
2021/08/11 05:52:25;;;;;;;13.75;8.73;;;;;;;14.91;87.98;101661.03;5003625;28;20479;-74
2021/08/11 05:54:53;;;;;;;14.13;8.93;;;;;;;14.95;87.85;101657.91;4990266;28;20372;-73
2021/08/11 05:57:18;;;;;;;16.42;7.30;;;;;;;15.02;87.61;101659.91;5002346;28;20488;-75
2021/08/11 05:59:44;;;;;;;15.80;9.02;;;;;;;15.20;87.08;101663.16;5001844;28;20022;-74
2021/08/11 06:02:09;;;;;;;20.17;9.00;;;;;;;15.17;86.88;101660.84;5002408;28;20229;-74
2021/08/11 06:04:42;;;;;;;10.75;7.32;;;;;;;15.27;87.02;101656.25;4987967;28;20077;-75
2021/08/11 06:07:08;;;;;;;13.30;7.97;;;;;;;15.28;86.74;101668.34;5006327;28;20492;-74
2021/08/11 06:09:33;;;;;;;11.82;8.35;;;;;;;15.57;86.53;101667.78;4986963;28;20098;-74
2021/08/11 06:11:59;;;;;;;12.07;7.18;;;;;;;15.77;85.91;101664.84;4984821;28;20030;-75
2021/08/11 06:14:25;;;;;;;9.65;6.95;;;;;;;16.11;85.21;101672.34;5004884;28;20580;-75
2021/08/11 06:16:50;;;;;;;10.43;6.57;;;;;;;16.46;83.72;101672.81;4981270;28;20042;-75
2021/08/11 06:19:16;;;;;;;10.48;7.07;;;;;;;16.82;81.69;101677.50;4999876;28;20041;-75
2021/08/11 06:21:41;;;;;;;11.60;7.43;;;;;;;17.01;81.19;101676.19;4989114;28;20038;-75
2021/08/11 06:24:07;;;;;;;14.52;8.32;;;;;;;17.16;80.12;101670.16;5002287;28;20067;-75
2021/08/11 06:26:35;;;;;;;12.80;7.38;;;;;;;17.30;80.30;101680.66;5000569;28;20463;-75
2021/08/11 06:29:01;;;;;;;12.07;6.30;;;;;;;17.56;78.98;101679.44;4986804;28;20555;-76
2021/08/11 06:31:27;;;;;;;14.43;7.38;;;;;;;17.67;78.68;101681.59;4989537;28;20026;-75
2021/08/11 06:33:53;;;;;;;10.68;7.55;;;;;;;17.74;78.35;101675.63;5007040;28;20026;-75
2021/08/11 06:36:20;;;;;;;10.10;6.53;;;;;;;17.94;78.02;101678.53;5008765;28;20077;-76
2021/08/11 06:38:48;;;;;;;9.65;7.30;;;;;;;17.99;77.80;101679.59;5001116;28;20034;-75
2021/08/11 06:41:16;;;;;;;15.35;7.55;;;;;;;18.00;76.58;101669.91;4987848;28;20056;-75
2021/08/11 06:43:50;;;;;;;11.05;7.97;;;;;;;18.08;76.86;101668.00;4991039;28;20042;-76
2021/08/11 06:46:18;;;;;;;11.68;6.70;;;;;;;17.98;76.74;101669.28;4996104;28;20025;-75
2021/08/11 06:48:43;;;;;;;9.98;6.15;;;;;;;17.80;78.30;101678.34;4996381;28;20029;-76
2021/08/11 06:51:09;;;;;;;10.30;6.60;;;;;;;17.74;79.22;101678.25;5014251;28;20030;-75
2021/08/11 06:53:35;;;;;;;11.70;7.47;;;;;;;17.72;79.58;101683.66;4998180;28;20511;-75
2021/08/11 06:56:01;;;;;;;10.82;6.80;;;;;;;17.67;80.26;101680.78;5006511;28;20045;-74
2021/08/11 06:58:26;;;;;;;12.13;7.05;;;;;;;17.75;80.24;101685.94;4993956;28;20322;-74
2021/08/11 07:00:53;;;;;;;12.35;6.53;;;;;;;17.94;79.82;101686.41;4989377;28;20041;-75
2021/08/11 07:03:21;;;;;;;11.35;6.68;;;;;;;18.24;78.22;101693.22;4988487;28;20288;-74
2021/08/11 07:05:47;;;;;;;12.73;7.15;;;;;;;18.46;77.78;101688.00;4993532;28;20033;-75
2021/08/11 07:08:12;;;;;;;11.20;7.43;;;;;;;18.84;77.05;101693.84;4995138;28;20036;-76
2021/08/11 07:10:38;;;;;;;20.25;7.00;;;;;;;19.36;75.02;101696.22;4990504;28;20411;-75
2021/08/11 07:13:03;;;;;;;10.95;6.85;;;;;;;19.77;74.17;101687.59;4999915;28;20441;-75
2021/08/11 07:15:29;;;;;;;9.60;6.47;;;;;;;20.18;71.77;101692.00;4987171;28;20118;-75
2021/08/11 07:17:56;;;;;;;6.82;5.47;;;;;;;20.47;71.44;101687.41;4993449;28;20096;-75
2021/08/11 07:20:23;;;;;;;10.48;6.88;;;;;;;20.35;69.95;101698.53;4981927;28;20065;-76
2021/08/11 07:22:48;;;;;;;14.73;6.60;;;;;;;19.98;71.30;101699.81;4984938;28;20100;-75
2021/08/11 07:25:14;;;;;;;10.63;5.80;;;;;;;20.16;71.69;101709.81;5002302;28;20339;-75
2021/08/11 07:27:40;;;;;;;10.27;5.35;;;;;;;20.33;71.27;101712.91;4998782;28;20037;-76
2021/08/11 07:30:06;;;;;;;8.13;5.90;;;;;;;20.47;71.54;101714.53;4999913;28;20479;-77
2021/08/11 07:32:32;;;;;;;15.80;7.10;;;;;;;20.25;71.61;101706.00;4989831;28;20026;-77
2021/08/11 07:34:57;;;;;;;9.82;6.90;;;;;;;20.07;72.23;101716.28;4994073;28;20038;-76
2021/08/11 07:37:23;;;;;;;14.95;6.75;;;;;;;20.14;72.53;101703.94;4988460;28;20133;-75
2021/08/11 07:39:49;;;;;;;8.25;5.32;;;;;;;20.66;71.37;101704.28;4999980;28;20046;-76
2021/08/11 07:42:15;;;;;;;10.38;5.95;;;;;;;21.38;69.06;101694.72;4971401;28;20034;-77
2021/08/11 07:44:40;;;;;;;10.07;6.65;;;;;;;21.56;67.59;101700.19;4977377;28;20026;-76
2021/08/11 07:47:06;;;;;;;11.55;7.68;;;;;;;21.95;64.32;101693.13;4978088;28;20038;-76
2021/08/11 07:49:31;;;;;;;9.50;6.20;;;;;;;22.10;65.29;101705.28;4989555;28;20026;-76
2021/08/11 07:51:57;;;;;;;14.48;5.95;;;;;;;21.97;65.94;101703.50;4998897;28;20057;-76
2021/08/11 07:54:23;;;;;;;10.00;6.32;;;;;;;22.28;64.54;101699.28;4985517;28;20069;-76
2021/08/11 07:56:49;;;;;;;11.05;6.45;;;;;;;22.40;64.84;101699.44;4986792;28;20040;-75
2021/08/11 07:59:14;;;;;;;10.57;7.22;;;;;;;22.78;62.99;101698.56;5007274;28;20465;-76
2021/08/11 08:01:40;;;;;;;9.30;5.60;;;;;;;23.15;62.60;101703.97;4991142;28;20070;-76
2021/08/11 08:04:05;;;;;;;10.70;6.20;;;;;;;23.48;60.54;101703.63;4985563;28;20038;-77
2021/08/11 08:06:31;;;;;;;17.92;7.95;;;;;;;23.53;60.83;101706.44;4999607;28;20527;-77
2021/08/11 08:08:56;;;;;;;10.85;6.25;;;;;;;23.87;61.55;101702.38;4980232;28;20396;-76
2021/08/11 08:11:22;;;;;;;7.93;5.88;;;;;;;24.27;59.01;101695.75;5001615;28;20072;-77
2021/08/11 08:13:48;;;;;;;14.80;6.78;;;;;;;24.26;58.22;101699.41;4964702;28;20356;-77
2021/08/11 08:16:15;;;;;;;12.40;7.15;;;;;;;23.46;61.56;101700.41;4986215;28;20490;-76
2021/08/11 08:18:41;;;;;;;14.85;7.82;;;;;;;23.54;60.42;101697.44;4984637;28;20034;-77
2021/08/11 08:21:06;;;;;;;9.43;6.63;;;;;;;23.88;59.99;101690.78;4992740;28;20033;-77
2021/08/11 08:23:32;;;;;;;10.25;6.70;;;;;;;23.50;60.64;101690.97;4987168;28;20487;-77
2021/08/11 08:25:58;;;;;;;13.38;7.38;;;;;;;23.24;60.82;101684.94;4973360;28;20022;-75
2021/08/11 08:28:23;;;;;;;16.80;7.85;;;;;;;24.07;59.93;101674.81;5003775;28;20037;-77
2021/08/11 08:30:49;;;;;;;12.48;7.55;;;;;;;24.24;56.38;101683.78;4986295;28;20029;-77
2021/08/11 08:33:16;;;;;;;12.82;7.60;;;;;;;24.86;56.27;101677.31;4981734;28;20030;-76
2021/08/11 08:35:43;;;;;;;11.73;6.93;;;;;;;24.31;57.57;101686.31;4985508;28;20026;-77
2021/08/11 08:38:09;;;;;;;11.20;6.38;;;;;;;23.63;59.54;101688.19;5004392;28;20038;-77
2021/08/11 08:40:37;;;;;;;10.80;6.35;;;;;;;23.27;59.97;101686.34;5009159;28;20040;-77
2021/08/11 08:43:04;;;;;;;12.50;7.63;;;;;;;22.78;61.41;101688.78;5010890;28;20044;-77
2021/08/11 08:45:29;;;;;;;12.82;6.38;;;;;;;22.51;62.16;101689.00;4996072;28;20128;-76
2021/08/11 08:47:56;;;;;;;13.32;7.32;;;;;;;21.90;63.48;101689.50;5010987;28;20033;-76
2021/08/11 08:50:24;;;;;;;12.23;6.40;;;;;;;21.88;63.21;101695.00;4983035;28;20038;-77
2021/08/11 08:52:50;;;;;;;11.32;6.15;;;;;;;21.88;64.82;101694.19;5010270;28;20075;-76
2021/08/11 08:55:19;;;;;;;8.88;5.25;;;;;;;22.01;65.40;101693.31;4998118;28;20157;-76
2021/08/11 08:57:45;;;;;;;5.88;4.05;;;;;;;22.03;65.44;101689.44;5005537;28;20036;-77
2021/08/11 09:00:12;;;;;;;12.88;5.55;;;;;;;22.11;65.79;101691.03;4988410;28;20046;-74
2021/08/11 09:02:39;;;;;;;9.18;4.88;;;;;;;22.19;65.62;101689.97;5002727;28;20018;-77
2021/08/11 09:05:08;;;;;;;10.55;5.15;;;;;;;22.20;64.54;101681.84;5004416;28;20038;-77
2021/08/11 09:07:34;;;;;;;6.43;4.50;;;;;;;22.15;64.04;101686.94;4986725;28;20045;-75
2021/08/11 09:10:16;;;;;;;10.93;7.00;;;;;;;22.12;63.17;101693.47;4995098;28;20025;-75
2021/08/11 09:12:44;;;;;;;8.25;4.03;;;;;;;22.06;64.68;101689.03;5012119;28;20026;-76
2021/08/11 09:15:28;;;;;;;7.95;5.82;;;;;;;22.14;64.75;101691.41;5007345;28;20493;-75
2021/08/11 09:17:56;;;;;;;11.85;6.35;;;;;;;22.13;63.32;101696.91;4982134;28;20033;-77
2021/08/11 09:20:28;;;;;;;5.43;3.80;;;;;;;22.09;64.18;101701.78;4981453;28;20378;-76
2021/08/11 09:22:56;;;;;;;8.80;4.57;;;;;;;22.05;65.11;101697.16;4974948;28;20033;-76
2021/08/11 09:25:22;;;;;;;8.60;5.60;;;;;;;21.87;64.13;101695.19;5002557;28;20038;-74
2021/08/11 09:27:49;;;;;;;6.60;4.00;;;;;;;21.84;65.05;101691.16;5001348;28;20439;-74
2021/08/11 09:30:15;;;;;;;5.90;3.97;;;;;;;21.90;65.19;101686.88;4990971;28;20041;-77
2021/08/11 09:33:01;;;;;;;9.77;5.63;;;;;;;21.90;65.53;101686.88;5012450;28;20077;-76
2021/08/11 09:35:32;;;;;;;6.40;5.07;;;;;;;21.88;nan;101688.91;5001668;28;20476;-75
2021/08/11 09:38:03;;;;;;;7.45;4.90;;;;;;;21.86;64.50;101694.41;4994547;28;20092;-74
2021/08/11 09:40:31;;;;;;;10.82;4.70;;;;;;;21.90;64.63;101692.16;4993427;28;20507;-76
2021/08/11 09:43:01;;;;;;;10.18;5.13;;;;;;;21.84;64.76;101688.50;5015040;28;20053;-75
2021/08/11 09:45:40;;;;;;;6.38;3.88;;;;;;;22.03;64.07;101688.63;4996207;28;20041;-76
2021/08/11 09:48:06;;;;;;;9.45;4.22;;;;;;;22.08;63.57;101689.63;5000415;28;20038;-76
2021/08/11 09:50:35;;;;;;;7.97;3.70;;;;;;;22.03;65.00;101693.91;5001710;28;20030;-76
2021/08/11 09:53:00;;;;;;;9.35;4.88;;;;;;;22.08;nan;101688.81;4982017;28;20036;-75
2021/08/11 09:55:26;;;;;;;5.72;2.67;;;;;;;22.81;63.16;101690.19;4990380;28;20030;-76
2021/08/11 09:57:51;;;;;;;4.18;2.70;;;;;;;23.18;61.32;101693.75;4997905;28;20038;-74
2021/08/11 10:00:17;;;;;;;4.38;2.83;;;;;;;23.17;61.08;101693.97;5002152;28;20499;-76
2021/08/11 10:02:44;;;;;;;5.10;2.85;;;;;;;23.40;60.63;101688.84;4994161;28;20056;-76
2021/08/11 10:05:33;;;;;;;5.65;2.30;;;;;;;23.37;60.64;101693.78;5001196;28;20047;-77
2021/08/11 10:07:59;;;;;;;5.35;3.05;;;;;;;23.46;59.32;101692.47;5000417;28;20494;-76
2021/08/11 10:10:25;;;;;;;3.40;2.22;;;;;;;23.36;61.08;101698.28;4962626;28;20021;-76
2021/08/11 10:12:53;;;;;;;3.58;2.15;;;;;;;23.13;59.70;101696.22;5008205;28;20298;-76
2021/08/11 10:15:19;;;;;;;4.93;2.30;;;;;;;23.03;60.09;101699.38;5006122;28;20033;-76
2021/08/11 10:17:45;;;;;;;3.25;2.28;;;;;;;23.09;60.85;101690.59;5009499;28;20026;-76
2021/08/11 10:20:12;;;;;;;2.25;1.98;;;;;;;22.96;60.36;101690.66;4985724;28;20539;-76
2021/08/11 10:22:39;;;;;;;4.88;2.55;;;;;;;23.17;60.07;101697.44;5013722;28;20030;-76
2021/08/11 10:25:06;;;;;;;6.13;2.70;;;;;;;23.71;59.04;101689.72;4976298;28;20037;-76
2021/08/11 10:27:32;;;;;;;5.72;2.80;;;;;;;24.09;56.52;101692.13;4993668;28;20124;-76
2021/08/11 10:29:58;;;;;;;3.83;2.25;;;;;;;24.21;56.64;101689.50;4999850;28;20484;-77
2021/08/11 10:32:24;;;;;;;4.20;2.35;;;;;;;24.40;56.91;101692.09;4993443;28;20044;-76
2021/08/11 10:34:54;;;;;;;3.55;2.30;;;;;;;23.70;56.18;101694.22;4986687;28;20117;-76
2021/08/11 10:37:22;;;;;;;6.18;2.50;;;;;;;23.47;56.60;101702.00;5010512;28;20034;-76
2021/08/11 10:39:48;;;;;;;3.58;2.65;;;;;;;23.46;56.93;101705.69;5002805;28;20391;-76
2021/08/11 10:42:16;;;;;;;3.67;2.45;;;;;;;23.39;56.44;101711.03;5012266;28;20029;-77
2021/08/11 10:44:44;;;;;;;2.88;2.00;;;;;;;23.43;56.42;101701.66;4995001;28;20032;-76
2021/08/11 10:47:11;;;;;;;2.40;2.03;;;;;;;23.70;56.51;101706.66;4995112;28;20094;-76
2021/08/11 10:49:57;;;;;;;3.53;2.67;;;;;;;23.67;56.13;101705.22;5004829;28;20058;-76
2021/08/11 10:52:23;;;;;;;3.22;2.40;;;;;;;23.66;55.47;101700.97;4978728;28;20100;-77
2021/08/11 10:54:52;;;;;;;2.85;2.20;;;;;;;23.75;56.45;101704.13;5003367;28;20037;-77
2021/08/11 10:57:40;;;;;;;4.93;2.28;;;;;;;24.01;55.43;101703.00;4999609;28;20040;-75
2021/08/11 11:00:08;;;;;;;3.85;2.65;;;;;;;24.02;55.59;101707.28;4969462;28;20037;-77
2021/08/11 11:02:36;;;;;;;4.75;2.47;;;;;;;23.99;56.55;101704.28;4992831;28;20044;-75
2021/08/11 11:05:03;;;;;;;4.78;2.80;;;;;;;23.97;56.61;101698.41;4970273;28;20120;-77
2021/08/11 11:07:29;;;;;;;5.03;2.63;;;;;;;24.12;54.98;101700.66;4983342;28;20037;-77
2021/08/11 11:10:24;;;;;;;9.82;2.70;;;;;;;24.17;56.62;101712.19;4992226;28;20100;-76
2021/08/11 11:12:51;;;;;;;5.32;2.80;;;;;;;24.40;55.21;101702.69;4990851;28;20547;-76
2021/08/11 11:15:36;;;;;;;3.78;2.88;;;;;;;24.58;55.47;101707.13;4985582;28;20117;-77
2021/08/11 11:18:22;;;;;;;4.40;2.30;;;;;;;24.99;52.98;101697.50;4972497;28;20045;-75
2021/08/11 11:20:48;;;;;;;3.65;2.65;;;;;;;24.72;53.19;101707.75;4965743;28;20037;-75
2021/08/11 11:23:32;;;;;;;4.07;2.40;;;;;;;24.35;54.20;101705.22;4989926;28;20040;-77